Time;durP1;ratioP1;P1;durP2;ratioP2;P2;SDS_P1;SDS_P2;PMS_P1;PMS_P2;Temp;Humidity;BMP_temperature;BMP_pressure;BME280_temperature;BME280_humidity;BME280_pressure;Samples;Min_cycle;Max_cycle;Signal;HPM_P1;HPM_P2
2022/01/19 00:01:03;;;;;;;;;;;;;;;;;;5112590;28;1155;-85
2022/01/19 00:03:28;;;;;;;;;;;;;;;;;;5124240;28;1017;-85
2022/01/19 00:05:54;;;;;;;;;;;;;;;;;;5108073;28;1955;-86
2022/01/19 00:08:21;;;;;;;;;;;;;;;;;;5093207;28;1340;-85
2022/01/19 00:10:47;;;;;;;;;;;;;;;;;;5074262;28;1266;-85
2022/01/19 00:13:13;;;;;;;;;;;;;;;;;;5103195;28;1139;-86
2022/01/19 00:15:38;;;;;;;;;;;;;;;;;;5097905;28;1176;-86
2022/01/19 00:18:04;;;;;;;;;;;;;;;;;;5102280;28;1176;-86
2022/01/19 00:20:33;;;;;;;;;;;;;;;;;;5124566;28;1207;-84
2022/01/19 00:22:59;;;;;;;;;;;;;;;;;;5093728;28;1238;-86
2022/01/19 00:25:28;;;;;;;;;;;;;;;;;;5100403;28;1953;-86
2022/01/19 00:27:53;;;;;;;;;;;;;;;;;;5121499;28;1211;-87
2022/01/19 00:30:18;;;;;;;;;;;;;;;;;;5093921;28;1262;-86
2022/01/19 00:32:44;;;;;;;;;;;;;;;;;;5118092;28;1261;-86
2022/01/19 00:35:10;;;;;;;;;;;;;;;;;;5088629;28;1247;-86
2022/01/19 00:37:36;;;;;;;;;;;;;;;;;;5092852;28;1167;-85
2022/01/19 00:40:03;;;;;;;;;;;;;;;;;;5110837;28;1124;-85
2022/01/19 00:42:31;;;;;;;;;;;;;;;;;;5089376;28;1169;-85
2022/01/19 00:44:56;;;;;;;;;;;;;;;;;;5079923;28;1992;-86
2022/01/19 00:47:22;;;;;;;;;;;;;;;;;;5113057;28;1349;-86
2022/01/19 00:49:47;;;;;;;;;;;;;;;;;;5106285;27;1282;-86
2022/01/19 00:52:13;;;;;;;;;;;;;;;;;;5123764;27;1167;-86
2022/01/19 00:54:39;;;;;;;;;;;;;;;;;;5083217;28;1295;-87
2022/01/19 00:57:05;;;;;;;;;;;;;;;;;;5089221;28;1295;-86
2022/01/19 00:59:31;;;;;;;;;;;;;;;;;;5126759;27;1163;-87
2022/01/19 01:01:56;;;;;;;;;;;;;;;;;;5073618;28;1386;-86
2022/01/19 01:04:22;;;;;;;;;;;;;;;;;;5091569;28;1276;-86
2022/01/19 01:06:47;;;;;;;;;;;;;;;;;;5102904;28;1898;-87
2022/01/19 01:09:12;;;;;;;;;;;;;;;;;;5090763;28;1293;-87
2022/01/19 01:11:46;;;;;;;;;;;;;;;;;;5077265;28;1207;-86
2022/01/19 01:16:40;;;;;;;;;;;;;;;;;;5112047;27;1060;-85
2022/01/19 01:19:07;;;;;;;;;;;;;;;;;;5127007;27;1151;-85
2022/01/19 01:21:33;;;;;;;;;;;;;;;;;;5124340;27;1265;-85
2022/01/19 01:23:59;;;;;;;;;;;;;;;;;;5093489;27;1251;-86
2022/01/19 01:26:24;;;;;;;;;;;;;;;;;;5104854;27;1883;-87
2022/01/19 01:28:49;;;;;;;;;;;;;;;;;;5074749;28;1281;-86
2022/01/19 01:31:15;;;;;;;;;;;;;;;;;;5103731;27;1322;-86
2022/01/19 01:33:40;;;;;;;;;;;;;;;;;;5091365;28;1586;-86
2022/01/19 01:36:09;;;;;;;;;;;;;;;;;;5105798;27;1317;-86
2022/01/19 01:38:36;;;;;;;;;;;;;;;;;;5098355;28;1240;-86
2022/01/19 01:41:03;;;;;;;;;;;;;;;;;;5094951;27;1279;-85
2022/01/19 01:43:28;;;;;;;;;;;;;;;;;;5108802;27;1189;-86
2022/01/19 01:46:01;;;;;;;;;;;;;;;;;;5092427;27;1917;-86
2022/01/19 01:48:26;;;;;;;;;;;;;;;;;;5090666;27;1401;-86
2022/01/19 01:53:38;;;;;;;;;;;;;;;;;;5108176;28;1064;-86
2022/01/19 01:56:11;;;;;;;;;;;;;;;;;;5075275;27;1230;-87
2022/01/19 01:58:41;;;;;;;;;;;;;;;;;;5094287;27;1263;-87
2022/01/19 02:01:07;;;;;;;;;;;;;;;;;;5108429;27;1167;-87
2022/01/19 02:03:40;;;;;;;;;;;;;;;;;;5102879;28;1277;-87
2022/01/19 02:08:55;;;;;;;;;;;;;;;;;;5118906;27;1122;-87
2022/01/19 02:22:51;;;;;;;;;;;;;;;;;;5107461;27;1020;-87
2022/01/19 02:25:17;;;;;;;;;;;;;;;;;;5117760;27;1886;-86
2022/01/19 02:41:41;;;;;;;;;;;;;;;;;;5099179;27;1156;-86
2022/01/19 02:44:31;;;;;;;;;;;;;;;;;;5078456;27;1227;-87
2022/01/19 02:49:09;;;;;;;;;;;;;;;;;;5116690;27;1893;-87
2022/01/19 02:49:39;;;;;;;;;;;;;;;;;;5108207;27;1095;-86
2022/01/19 02:52:04;;;;;;;;;;;;;;;;;;5101173;27;1322;-86
2022/01/19 02:54:30;;;;;;;;;;;;;;;;;;5093171;27;1288;-86
2022/01/19 02:56:59;;;;;;;;;;;;;;;;;;5082294;28;1277;-85
2022/01/19 02:59:37;;;;;;;;;;;;;;;;;;5104817;27;1140;-86
2022/01/19 03:10:34;;;;;;;;;;;;;;;;;;5078268;28;1179;-87
2022/01/19 03:12:59;;;;;;;;;;;;;;;;;;5090656;27;1136;-85
2022/01/19 03:15:25;;;;;;;;;;;;;;;;;;5098983;27;1275;-87
2022/01/19 03:17:57;;;;;;;;;;;;;;;;;;5101278;27;1240;-86
2022/01/19 03:20:22;;;;;;;;;;;;;;;;;;5122715;27;1063;-87
2022/01/19 03:25:53;;;;;;;;;;;;;;;;;;5030636;28;1918;-87
2022/01/19 03:28:18;;;;;;;;;;;;;;;;;;5027633;28;1224;-86
2022/01/19 03:30:47;;;;;;;;;;;;;;;;;;5068213;27;1220;-85
2022/01/19 03:33:13;;;;;;;;;;;;;;;;;;5095129;28;1203;-86
2022/01/19 03:35:38;;;;;;;;;;;;;;;;;;5099722;28;1188;-86
2022/01/19 03:38:04;;;;;;;;;;;;;;;;;;5103115;28;1151;-86
2022/01/19 03:40:30;;;;;;;;;;;;;;;;;;5093742;28;1214;-86
2022/01/19 03:42:55;;;;;;;;;;;;;;;;;;5096696;28;1238;-87
2022/01/19 03:45:21;;;;;;;;;;;;;;;;;;5090735;28;1945;-86
2022/01/19 03:47:54;;;;;;;;;;;;;;;;;;5097827;28;1324;-87
2022/01/19 03:50:19;;;;;;;;;;;;;;;;;;5103002;28;1270;-87
2022/01/19 03:52:47;;;;;;;;;;;;;;;;;;5109752;28;1162;-87
2022/01/19 03:55:13;;;;;;;;;;;;;;;;;;5114914;28;1060;-86
2022/01/19 03:57:38;;;;;;;;;;;;;;;;;;5121680;28;1203;-86
2022/01/19 04:00:07;;;;;;;;;;;;;;;;;;5124804;28;1139;-86
2022/01/19 04:02:35;;;;;;;;;;;;;;;;;;5091018;28;1305;-87
2022/01/19 04:05:07;;;;;;;;;;;;;;;;;;5093355;28;1953;-87
2022/01/19 04:07:32;;;;;;;;;;;;;;;;;;5085097;28;1219;-87
2022/01/19 04:09:57;;;;;;;;;;;;;;;;;;5103368;28;1132;-87
2022/01/19 04:12:42;;;;;;;;;;;;;;;;;;5097632;28;1348;-85
2022/01/19 04:15:08;;;;;;;;;;;;;;;;;;5092661;28;1063;-86
2022/01/19 04:17:34;;;;;;;;;;;;;;;;;;5126883;28;1164;-87
2022/01/19 04:19:59;;;;;;;;;;;;;;;;;;5115214;28;1139;-87
2022/01/19 04:22:24;;;;;;;;;;;;;;;;;;5094598;28;1191;-87
2022/01/19 04:24:53;;;;;;;;;;;;;;;;;;5088422;27;1212;-87
2022/01/19 04:29:52;;;;;;;;;;;;;;;;;;5120924;27;1171;-87
2022/01/19 04:32:23;;;;;;;;;;;;;;;;;;5106927;27;1246;-88
2022/01/19 04:34:50;;;;;;;;;;;;;;;;;;5104000;27;1294;-87
2022/01/19 05:04:33;;;;;;;;;;;;;;;;;;5122051;27;1060;-86
2022/01/19 05:07:08;;;;;;;;;;;;;;;;;;5111914;27;1951;-86
2022/01/19 05:14:45;;;;;;;;;;;;;;;;;;5101408;28;1008;-88
2022/01/19 05:17:11;;;;;;;;;;;;;;;;;;5088030;27;1250;-87
2022/01/19 05:19:36;;;;;;;;;;;;;;;;;;5105117;27;1391;-88
2022/01/19 05:22:02;;;;;;;;;;;;;;;;;;5096988;27;1247;-87
2022/01/19 05:24:27;;;;;;;;;;;;;;;;;;5104457;28;1183;-87
2022/01/19 05:26:55;;;;;;;;;;;;;;;;;;5113404;27;1940;-88
2022/01/19 05:29:21;;;;;;;;;;;;;;;;;;5093032;28;1265;-86
2022/01/19 05:31:46;;;;;;;;;;;;;;;;;;5082933;28;1253;-88
2022/01/19 05:34:11;;;;;;;;;;;;;;;;;;5099161;27;1238;-88
2022/01/19 05:36:40;;;;;;;;;;;;;;;;;;5082094;28;1204;-87
2022/01/19 05:39:05;;;;;;;;;;;;;;;;;;5109029;28;1166;-88
2022/01/19 05:41:31;;;;;;;;;;;;;;;;;;5094719;27;1143;-87
2022/01/19 05:43:57;;;;;;;;;;;;;;;;;;5106940;27;1338;-87
2022/01/19 05:46:23;;;;;;;;;;;;;;;;;;5100828;27;1937;-88
2022/01/19 05:48:51;;;;;;;;;;;;;;;;;;5106585;27;1203;-87
2022/01/19 05:51:20;;;;;;;;;;;;;;;;;;5097280;27;1264;-87
2022/01/19 05:53:49;;;;;;;;;;;;;;;;;;5093645;27;1236;-88
2022/01/19 05:56:14;;;;;;;;;;;;;;;;;;5090248;27;1402;-88
2022/01/19 05:58:39;;;;;;;;;;;;;;;;;;5096222;27;1160;-87
2022/01/19 06:01:05;;;;;;;;;;;;;;;;;;5088517;27;1169;-87
2022/01/19 06:03:30;;;;;;;;;;;;;;;;;;5098964;27;1211;-88
2022/01/19 06:06:13;;;;;;;;;;;;;;;;;;5105207;27;1862;-91
2022/01/19 06:08:42;;;;;;;;;;;;;;;;;;5139154;27;1362;-87
2022/01/19 06:11:07;;;;;;;;;;;;;;;;;;5106504;27;1207;-88
2022/01/19 06:13:35;;;;;;;;;;;;;;;;;;5135096;27;1159;-88
2022/01/19 06:16:06;;;;;;;;;;;;;;;;;;5105141;27;1143;-88
2022/01/19 06:18:32;;;;;;;;;;;;;;;;;;5108802;28;1286;-88
2022/01/19 06:21:13;;;;;;;;;;;;;;;;;;5123751;27;1087;-88
2022/01/19 06:23:44;;;;;;;;;;;;;;;;;;5123570;27;1048;-86
2022/01/19 06:26:09;;;;;;;;;;;;;;;;;;5091330;27;1904;-89
2022/01/19 06:28:35;;;;;;;;;;;;;;;;;;5091086;28;1242;-88
2022/01/19 06:31:07;;;;;;;;;;;;;;;;;;5116049;27;1246;-88
2022/01/19 06:33:32;;;;;;;;;;;;;;;;;;5130018;27;1127;-88
2022/01/19 06:36:09;;;;;;;;;;;;;;;;;;5095262;27;1282;-86
2022/01/19 06:38:34;;;;;;;;;;;;;;;;;;5102746;27;1180;-88
2022/01/19 06:41:06;;;;;;;;;;;;;;;;;;5084219;27;1238;-89
2022/01/19 06:43:34;;;;;;;;;;;;;;;;;;5097194;27;1555;-88
2022/01/19 06:46:05;;;;;;;;;;;;;;;;;;5102250;28;1973;-87
2022/01/19 06:48:30;;;;;;;;;;;;;;;;;;5120283;27;1326;-87
2022/01/19 06:51:24;;;;;;;;;;;;;;;;;;5108849;28;1257;-88
2022/01/19 06:53:49;;;;;;;;;;;;;;;;;;5122402;27;1210;-87
2022/01/19 06:56:15;;;;;;;;;;;;;;;;;;5099783;28;1182;-85
2022/01/19 06:58:53;;;;;;;;;;;;;;;;;;5109883;27;1211;-88
2022/01/19 07:01:19;;;;;;;;;;;;;;;;;;5124292;27;1104;-87
2022/01/19 07:03:44;;;;;;;;;;;;;;;;;;5104492;28;1144;-87
2022/01/19 07:06:14;;;;;;;;;;;;;;;;;;5102247;27;1913;-90
2022/01/19 07:08:39;;;;;;;;;;;;;;;;;;5096808;27;1353;-90
2022/01/19 07:11:08;;;;;;;;;;;;;;;;;;5082943;28;1155;-88
2022/01/19 07:13:56;;;;;;;;;;;;;;;;;;5124450;27;1132;-85
2022/01/19 07:16:22;;;;;;;;;;;;;;;;;;5129680;27;1241;-89
2022/01/19 07:18:47;;;;;;;;;;;;;;;;;;5085129;27;1337;-89
2022/01/19 07:21:12;;;;;;;;;;;;;;;;;;5087269;28;1152;-89
2022/01/19 07:23:38;;;;;;;;;;;;;;;;;;5095778;28;1156;-89
2022/01/19 07:26:12;;;;;;;;;;;;;;;;;;5115506;27;1979;-90
2022/01/19 07:28:38;;;;;;;;;;;;;;;;;;5094173;28;1265;-91
2022/01/19 07:31:03;;;;;;;;;;;;;;;;;;5113868;27;1140;-90
2022/01/19 07:33:28;;;;;;;;;;;;;;;;;;5073352;27;1267;-91
2022/01/19 07:35:54;;;;;;;;;;;;;;;;;;5086291;28;1204;-91
2022/01/19 07:38:22;;;;;;;;;;;;;;;;;;5096149;28;1163;-90
2022/01/19 07:40:48;;;;;;;;;;;;;;;;;;5129059;28;1218;-90
2022/01/19 07:43:13;;;;;;;;;;;;;;;;;;5110823;28;1203;-90
2022/01/19 07:45:38;;;;;;;;;;;;;;;;;;5089581;28;1902;-90
2022/01/19 07:48:04;;;;;;;;;;;;;;;;;;5089294;28;1167;-90
2022/01/19 07:50:29;;;;;;;;;;;;;;;;;;5102909;28;1195;-89
2022/01/19 07:52:55;;;;;;;;;;;;;;;;;;5096709;28;1294;-91
2022/01/19 07:55:23;;;;;;;;;;;;;;;;;;5092693;28;1195;-86
2022/01/19 07:57:51;;;;;;;;;;;;;;;;;;5093907;28;1333;-84
2022/01/19 08:00:16;;;;;;;;;;;;;;;;;;5107940;27;1159;-78
2022/01/19 08:02:42;;;;;;;;;;;;;;;;;;5128128;27;1132;-79
2022/01/19 08:05:08;;;;;;;;;;;;;;;;;;5093072;27;1882;-79
2022/01/19 08:07:35;;;;;;;;;;;;;;;;;;5086763;27;1141;-78
2022/01/19 08:10:01;;;;;;;;;;;;;;;;;;5126499;27;1159;-78
2022/01/19 08:12:26;;;;;;;;;;;;;;;;;;5087739;28;1310;-78
2022/01/19 08:14:51;;;;;;;;;;;;;;;;;;5090097;28;1168;-79
2022/01/19 08:17:17;;;;;;;;;;;;;;;;;;5107827;28;1055;-79
2022/01/19 08:19:42;;;;;;;;;;;;;;;;;;5089333;28;1284;-79
2022/01/19 08:22:07;;;;;;;;;;;;;;;;;;5103366;28;1187;-79
2022/01/19 08:24:32;;;;;;;;;;;;;;;;;;5088336;28;1218;-78
2022/01/19 08:26:58;;;;;;;;;;;;;;;;;;5106860;27;1898;-77
2022/01/19 08:29:23;;;;;;;;;;;;;;;;;;5107530;27;1164;-78
2022/01/19 08:31:48;;;;;;;;;;;;;;;;;;5109246;27;1148;-78
2022/01/19 08:34:17;;;;;;;;;;;;;;;;;;5092445;27;1269;-77
2022/01/19 08:36:43;;;;;;;;;;;;;;;;;;5107014;27;1223;-77
2022/01/19 08:39:08;;;;;;;;;;;;;;;;;;5129077;27;1139;-78
2022/01/19 08:41:34;;;;;;;;;;;;;;;;;;5108448;27;1323;-78
2022/01/19 08:43:59;;;;;;;;;;;;;;;;;;5095480;27;1673;-79
2022/01/19 08:46:25;;;;;;;;;;;;;;;;;;5091315;27;1914;-79
2022/01/19 08:48:51;;;;;;;;;;;;;;;;;;5129847;27;1140;-79
2022/01/19 08:51:17;;;;;;;;;;;;;;;;;;5104197;27;1144;-79
2022/01/19 08:53:42;;;;;;;;;;;;;;;;;;5076368;27;1184;-78
2022/01/19 08:56:08;;;;;;;;;;;;;;;;;;5109835;27;1295;-78
2022/01/19 08:58:33;;;;;;;;;;;;;;;;;;5124626;27;1318;-78
2022/01/19 09:01:02;;;;;;;;;;;;;;;;;;5089363;28;1287;-78
2022/01/19 09:03:28;;;;;;;;;;;;;;;;;;5097658;27;1125;-78
2022/01/19 09:05:53;;;;;;;;;;;;;;;;;;5083641;27;1989;-78
2022/01/19 09:08:20;;;;;;;;;;;;;;;;;;5082864;27;1270;-77
2022/01/19 09:10:50;;;;;;;;;;;;;;;;;;5085584;27;1070;-78
2022/01/19 09:13:23;;;;;;;;;;;;;;;;;;5087035;27;1148;-78
2022/01/19 09:15:49;;;;;;;;;;;;;;;;;;5104020;27;1307;-78
2022/01/19 09:18:14;;;;;;;;;;;;;;;;;;5069866;28;1223;-77
2022/01/19 09:20:40;;;;;;;;;;;;;;;;;;5098533;28;1085;-78
2022/01/19 09:23:05;;;;;;;;;;;;;;;;;;5084914;27;1379;-78
2022/01/19 09:25:32;;;;;;;;;;;;;;;;;;5087357;28;1991;-77
2022/01/19 09:27:59;;;;;;;;;;;;;;;;;;5071858;28;1205;-78
2022/01/19 09:30:25;;;;;;;;;;;;;;;;;;5064823;28;1161;-80
2022/01/19 09:33:11;;;;;;;;;;;;;;;;;;5074194;28;1127;-87
2022/01/19 09:36:04;;;;;;;;;;;;;;;;;;5098343;28;1048;-85
2022/01/19 09:38:34;;;;;;;;;;;;;;;;;;5107648;28;1302;-88
2022/01/19 09:41:03;;;;;;;;;;;;;;;;;;5100399;28;1216;-84
2022/01/19 09:43:28;;;;;;;;;;;;;;;;;;5098457;28;1064;-87
2022/01/19 09:45:58;;;;;;;;;;;;;;;;;;5073120;28;2005;-85
2022/01/19 09:48:24;;;;;;;;;;;;;;;;;;5104341;28;1166;-88
2022/01/19 09:50:50;;;;;;;;;;;;;;;;;;5103045;28;1326;-86
2022/01/19 09:53:15;;;;;;;;;;;;;;;;;;5104483;28;1076;-77
2022/01/19 09:55:41;;;;;;;;;;;;;;;;;;5107698;28;1299;-86
2022/01/19 09:58:07;;;;;;;;;;;;;;;;;;5108944;28;1589;-88
2022/01/19 10:00:33;;;;;;;;;;;;;;;;;;5095880;28;1170;-85
2022/01/19 10:03:15;;;;;;;;;;;;;;;;;;5089419;28;1220;-84
2022/01/19 10:06:10;;;;;;;;;;;;;;;;;;5106477;28;1926;-86
2022/01/19 10:08:46;;;;;;;;;;;;;;;;;;5141616;27;1163;-84
2022/01/19 10:11:16;;;;;;;;;;;;;;;;;;5107104;28;1155;-86
2022/01/19 10:17:00;;;;;;;;;;;;;;;;;;5128736;28;999;-86
2022/01/19 10:19:35;;;;;;;;;;;;;;;;;;5111045;28;1160;-86
2022/01/19 10:22:06;;;;;;;;;;;;;;;;;;5119197;28;1265;-87
2022/01/19 10:24:42;;;;;;;;;;;;;;;;;;5128182;28;1317;-86
2022/01/19 10:27:19;;;;;;;;;;;;;;;;;;5128288;28;1898;-87
2022/01/19 10:29:54;;;;;;;;;;;;;;;;;;5125963;28;1342;-86
2022/01/19 10:32:21;;;;;;;;;;;;;;;;;;5112725;28;1222;-86
2022/01/19 10:34:46;;;;;;;;;;;;;;;;;;5091687;28;1266;-86
2022/01/19 10:37:11;;;;;;;;;;;;;;;;;;5094625;28;1080;-89
2022/01/19 10:39:50;;;;;;;;;;;;;;;;;;5108793;28;1115;-89
2022/01/19 10:42:19;;;;;;;;;;;;;;;;;;5110367;28;1262;-86
2022/01/19 10:44:47;;;;;;;;;;;;;;;;;;5111860;27;1155;-87
2022/01/19 10:47:12;;;;;;;;;;;;;;;;;;5100064;28;1910;-86
2022/01/19 10:49:56;;;;;;;;;;;;;;;;;;5088247;28;1307;-87
2022/01/19 10:52:30;;;;;;;;;;;;;;;;;;5089548;28;1222;-88
2022/01/19 10:54:59;;;;;;;;;;;;;;;;;;5108216;28;1207;-87
2022/01/19 10:57:29;;;;;;;;;;;;;;;;;;5106268;28;1339;-85
2022/01/19 11:00:15;;;;;;;;;;;;;;;;;;5089404;28;1138;-85
2022/01/19 11:02:41;;;;;;;;;;;;;;;;;;5106956;28;1426;-88
2022/01/19 11:05:06;;;;;;;;;;;;;;;;;;5078483;28;1309;-88
2022/01/19 11:07:32;;;;;;;;;;;;;;;;;;5084722;28;1878;-88
2022/01/19 11:10:01;;;;;;;;;;;;;;;;;;5087622;28;1255;-86
2022/01/19 11:12:39;;;;;;;;;;;;;;;;;;5101640;28;1245;-83
2022/01/19 11:15:04;;;;;;;;;;;;;;;;;;5107239;28;1335;-87
2022/01/19 11:17:33;;;;;;;;;;;;;;;;;;5087968;28;1196;-88
2022/01/19 11:20:01;;;;;;;;;;;;;;;;;;5090665;28;1172;-88
2022/01/19 11:22:36;;;;;;;;;;;;;;;;;;5083475;28;1230;-86
2022/01/19 11:25:22;;;;;;;;;;;;;;;;;;5085383;28;1372;-86
2022/01/19 11:27:48;;;;;;;;;;;;;;;;;;5092254;28;1408;-85
2022/01/19 11:30:24;;;;;;;;;;;;;;;;;;5068543;28;1223;-88
2022/01/19 11:33:08;;;;;;;;;;;;;;;;;;5086276;28;1308;-87
2022/01/19 11:35:34;;;;;;;;;;;;;;;;;;5093547;28;1186;-79
2022/01/19 11:38:00;;;;;;;;;;;;;;;;;;5079857;28;1156;-90
2022/01/19 11:40:36;;;;;;;;;;;;;;;;;;5073198;28;1310;-86
2022/01/19 11:43:21;;;;;;;;;;;;;;;;;;5084636;28;1265;-88
2022/01/19 11:45:53;;;;;;;;;;;;;;;;;;5098950;28;1906;-88
2022/01/19 11:48:20;;;;;;;;;;;;;;;;;;5085964;28;1242;-86
2022/01/19 11:50:56;;;;;;;;;;;;;;;;;;5092321;28;1191;-86
2022/01/19 11:53:21;;;;;;;;;;;;;;;;;;5097313;28;1186;-84
2022/01/19 11:56:04;;;;;;;;;;;;;;;;;;5084770;28;1242;-86
2022/01/19 11:58:40;;;;;;;;;;;;;;;;;;5104414;28;1185;-86
2022/01/19 12:01:19;;;;;;;;;;;;;;;;;;5097100;28;1091;-88
2022/01/19 12:03:45;;;;;;;;;;;;;;;;;;5092579;28;1187;-88
2022/01/19 12:06:27;;;;;;;;;;;;;;;;;;5099804;28;1889;-88
2022/01/19 12:08:56;;;;;;;;;;;;;;;;;;5100591;28;1212;-87
2022/01/19 12:11:22;;;;;;;;;;;;;;;;;;5073311;28;1278;-88
2022/01/19 12:14:10;;;;;;;;;;;;;;;;;;5084694;28;1368;-88
2022/01/19 12:19:10;;;;;;;;;;;;;;;;;;5095640;28;1218;-85
2022/01/19 12:21:51;;;;;;;;;;;;;;;;;;5090307;28;1221;-86
2022/01/19 12:24:16;;;;;;;;;;;;;;;;;;5090787;28;1129;-87
2022/01/19 12:26:56;;;;;;;;;;;;;;;;;;5095910;28;1992;-85
2022/01/19 12:29:48;;;;;;;;;;;;;;;;;;5104031;28;1191;-79
2022/01/19 12:32:16;;;;;;;;;;;;;;;;;;5098343;28;1302;-80
2022/01/19 12:34:46;;;;;;;;;;;;;;;;;;5103260;28;1270;-79
2022/01/19 12:37:12;;;;;;;;;;;;;;;;;;5092655;28;1191;-80
2022/01/19 12:39:43;;;;;;;;;;;;;;;;;;5101466;28;1179;-78
2022/01/19 12:43:10;;;;;;;;;;;;;;;;;;5091325;28;1345;-81
2022/01/19 12:45:13;;;;;;;;;;;;;;;;;;5073988;28;1316;-81
2022/01/19 12:47:43;;;;;;;;;;;;;;;;;;5106691;28;1965;-79
2022/01/19 12:50:08;;;;;;;;;;;;;;;;;;5093006;28;1463;-79
2022/01/19 12:52:37;;;;;;;;;;;;;;;;;;5097665;28;1179;-80
2022/01/19 12:55:11;;;;;;;;;;;;;;;;;;5102882;28;1156;-81
2022/01/19 12:57:46;;;;;;;;;;;;;;;;;;5104538;28;1245;-80
2022/01/19 13:00:13;;;;;;;;;;;;;;;;;;5099202;28;1578;-80
2022/01/19 13:02:41;;;;;;;;;;;;;;;;;;5106662;28;1452;-81
2022/01/19 13:05:08;;;;;;;;;;;;;;;;;;5099511;28;1301;-78
2022/01/19 13:07:46;;;;;;;;;;;;;;;;;;5102072;28;1885;-81
2022/01/19 13:12:50;;;;;;;;;;;;;;;;;;5103930;28;1092;-82
2022/01/19 13:15:16;;;;;;;;;;;;;;;;;;5104101;28;1242;-80
2022/01/19 13:17:46;;;;;;;;;;;;;;;;;;5064796;28;1184;-82
2022/01/19 13:20:13;;;;;;;;;;;;;;;;;;5102536;28;1195;-81
2022/01/19 13:22:46;;;;;;;;;;;;;;;;;;5098189;28;1208;-80
2022/01/19 13:25:25;;;;;;;;;;;;;;;;;;5085024;28;1295;-80
2022/01/19 13:27:55;;;;;;;;;;;;;;;;;;5086943;28;1155;-80
2022/01/19 13:30:21;;;;;;;;;;;;;;;;;;5084828;28;1405;-80
2022/01/19 13:32:47;;;;;;;;;;;;;;;;;;5081587;28;1310;-80
2022/01/19 13:35:12;;;;;;;;;;;;;;;;;;5087227;28;1211;-82
2022/01/19 13:37:51;;;;;;;;;;;;;;;;;;5086968;28;1282;-82
2022/01/19 13:40:24;;;;;;;;;;;;;;;;;;5085254;28;1228;-82
2022/01/19 13:42:56;;;;;;;;;;;;;;;;;;5082718;28;1136;-81
2022/01/19 13:53:54;;;;;;;;;;;;;;;;;;5084629;28;1301;-80
2022/01/19 13:56:38;;;;;;;;;;;;;;;;;;5101480;28;1521;-82
2022/01/19 13:59:12;;;;;;;;;;;;;;;;;;5089436;28;1251;-82
2022/01/19 14:01:40;;;;;;;;;;;;;;;;;;5097280;28;1317;-82
2022/01/19 14:04:07;;;;;;;;;;;;;;;;;;5090523;28;1275;-81
2022/01/19 14:06:34;;;;;;;;;;;;;;;;;;5102102;28;1948;-80
2022/01/19 14:09:13;;;;;;;;;;;;;;;;;;5091259;28;1325;-81
2022/01/19 14:11:40;;;;;;;;;;;;;;;;;;5099252;28;1219;-83
2022/01/19 14:14:06;;;;;;;;;;;;;;;;;;5087431;28;1312;-82
2022/01/19 14:16:38;;;;;;;;;;;;;;;;;;5100279;28;1207;-81
2022/01/19 14:19:06;;;;;;;;;;;;;;;;;;5087570;28;1243;-80
2022/01/19 14:21:32;;;;;;;;;;;;;;;;;;5106898;28;1241;-81
2022/01/19 14:23:58;;;;;;;;;;;;;;;;;;5101108;28;1176;-80
2022/01/19 14:26:23;;;;;;;;;;;;;;;;;;5104996;28;1894;-80
2022/01/19 14:29:09;;;;;;;;;;;;;;;;;;5104342;28;1222;-81
2022/01/19 14:31:49;;;;;;;;;;;;;;;;;;5092373;28;1211;-82
2022/01/19 14:34:14;;;;;;;;;;;;;;;;;;5101743;28;1201;-81
2022/01/19 14:36:40;;;;;;;;;;;;;;;;;;5106432;28;1123;-80
2022/01/19 14:39:05;;;;;;;;;;;;;;;;;;5100302;28;1216;-81
2022/01/19 14:41:34;;;;;;;;;;;;;;;;;;5086061;28;1147;-81
2022/01/19 14:44:21;;;;;;;;;;;;;;;;;;5088171;28;1339;-81
2022/01/19 14:49:53;;;;;;;;;;;;;;;;;;5041631;28;1195;-80
2022/01/19 14:52:18;;;;;;;;;;;;;;;;;;5085249;28;1236;-81
2022/01/19 14:54:43;;;;;;;;;;;;;;;;;;5098277;28;1292;-82
2022/01/19 14:57:09;;;;;;;;;;;;;;;;;;5092112;28;1219;-81
2022/01/19 14:59:38;;;;;;;;;;;;;;;;;;5087383;28;1147;-81
2022/01/19 15:02:04;;;;;;;;;;;;;;;;;;5101472;28;1338;-81
2022/01/19 15:04:29;;;;;;;;;;;;;;;;;;5090343;28;1189;-81
2022/01/19 15:07:00;;;;;;;;;;;;;;;;;;5078847;28;1961;-80
2022/01/19 15:09:26;;;;;;;;;;;;;;;;;;5082005;28;1310;-82
2022/01/19 15:11:54;;;;;;;;;;;;;;;;;;5092392;28;1211;-81
2022/01/19 15:14:20;;;;;;;;;;;;;;;;;;5101987;28;1151;-79
2022/01/19 15:16:45;;;;;;;;;;;;;;;;;;5082146;28;1212;-77
2022/01/19 15:19:11;;;;;;;;;;;;;;;;;;5101770;28;1084;-79
2022/01/19 15:21:36;;;;;;;;;;;;;;;;;;5100877;28;1191;-80
2022/01/19 15:24:04;;;;;;;;;;;;;;;;;;5102560;28;1139;-83
2022/01/19 15:26:31;;;;;;;;;;;;;;;;;;5085784;28;1890;-84
2022/01/19 15:28:58;;;;;;;;;;;;;;;;;;5082134;28;1406;-79
2022/01/19 15:31:23;;;;;;;;;;;;;;;;;;5085247;28;1179;-79
2022/01/19 15:33:54;;;;;;;;;;;;;;;;;;5066333;28;1483;-78
2022/01/19 15:36:19;;;;;;;;;;;;;;;;;;5064874;28;1129;-81
2022/01/19 15:38:45;;;;;;;;;;;;;;;;;;5082237;28;1293;-83
2022/01/19 15:41:11;;;;;;;;;;;;;;;;;;5081073;28;1343;-78
2022/01/19 15:43:37;;;;;;;;;;;;;;;;;;5085218;28;1047;-78
2022/01/19 15:46:05;;;;;;;;;;;;;;;;;;5093595;28;1963;-78
2022/01/19 15:48:31;;;;;;;;;;;;;;;;;;5087403;28;1227;-79
2022/01/19 15:51:11;;;;;;;;;;;;;;;;;;5085945;28;1167;-80
2022/01/19 15:53:37;;;;;;;;;;;;;;;;;;5083368;28;1175;-79
2022/01/19 15:56:02;;;;;;;;;;;;;;;;;;5064050;28;1218;-78
2022/01/19 15:58:28;;;;;;;;;;;;;;;;;;5100529;28;1171;-80
2022/01/19 16:00:58;;;;;;;;;;;;;;;;;;5101175;28;1270;-80
2022/01/19 16:03:23;;;;;;;;;;;;;;;;;;5102802;28;1222;-80
2022/01/19 16:05:57;;;;;;;;;;;;;;;;;;5103976;28;1890;-79
2022/01/19 16:08:23;;;;;;;;;;;;;;;;;;5079601;28;1138;-80
2022/01/19 16:11:01;;;;;;;;;;;;;;;;;;5082575;28;1184;-79
2022/01/19 16:13:28;;;;;;;;;;;;;;;;;;5092686;28;1266;-79
2022/01/19 16:16:12;;;;;;;;;;;;;;;;;;5086137;28;1207;-79
2022/01/19 16:18:40;;;;;;;;;;;;;;;;;;5084552;28;1327;-79
2022/01/19 16:21:15;;;;;;;;;;;;;;;;;;5063174;28;1168;-78
2022/01/19 16:26:24;;;;;;;;;;;;;;;;;;5106838;28;1889;-78
2022/01/19 16:29:03;;;;;;;;;;;;;;;;;;5099944;28;1260;-80
2022/01/19 16:31:28;;;;;;;;;;;;;;;;;;5084772;28;1237;-81
2022/01/19 16:34:02;;;;;;;;;;;;;;;;;;5086728;28;1439;-81
2022/01/19 16:36:28;;;;;;;;;;;;;;;;;;5079281;28;1173;-82
2022/01/19 16:39:00;;;;;;;;;;;;;;;;;;5066067;28;1359;-84
2022/01/19 16:41:26;;;;;;;;;;;;;;;;;;5091268;28;1158;-82
2022/01/19 16:47:14;;;;;;;;;;;;;;;;;;5049866;28;1910;-83
2022/01/19 16:49:47;;;;;;;;;;;;;;;;;;5080489;28;1397;-81
2022/01/19 16:52:12;;;;;;;;;;;;;;;;;;5077678;28;1187;-81
2022/01/19 16:54:37;;;;;;;;;;;;;;;;;;5094334;28;1128;-81
2022/01/19 16:57:03;;;;;;;;;;;;;;;;;;5059366;28;1135;-81
2022/01/19 16:59:28;;;;;;;;;;;;;;;;;;5092972;28;1171;-85
2022/01/19 17:01:54;;;;;;;;;;;;;;;;;;5102023;28;1394;-80
2022/01/19 17:04:19;;;;;;;;;;;;;;;;;;5094390;28;1295;-84
2022/01/19 17:06:44;;;;;;;;;;;;;;;;;;5089388;28;1889;-83
2022/01/19 17:09:12;;;;;;;;;;;;;;;;;;5100127;28;1488;-84
2022/01/19 17:11:44;;;;;;;;;;;;;;;;;;5090005;28;1469;-82
2022/01/19 17:14:15;;;;;;;;;;;;;;;;;;5086609;28;1225;-82
2022/01/19 17:19:39;;;;;;;;;;;;;;;;;;5039644;28;1315;-79
2022/01/19 17:22:05;;;;;;;;;;;;;;;;;;5096459;28;1308;-79
2022/01/19 17:24:30;;;;;;;;;;;;;;;;;;5102919;28;1262;-81
2022/01/19 17:26:55;;;;;;;;;;;;;;;;;;5101194;28;1894;-81
2022/01/19 17:29:21;;;;;;;;;;;;;;;;;;5097497;28;1259;-82
2022/01/19 17:31:46;;;;;;;;;;;;;;;;;;5101586;28;1362;-82
2022/01/19 17:34:11;;;;;;;;;;;;;;;;;;5085042;27;1302;-80
2022/01/19 17:36:37;;;;;;;;;;;;;;;;;;5119559;27;1171;-82
2022/01/19 17:39:09;;;;;;;;;;;;;;;;;;5122267;27;1139;-82
2022/01/19 17:41:34;;;;;;;;;;;;;;;;;;5105444;27;1234;-82
2022/01/19 17:44:05;;;;;;;;;;;;;;;;;;5097271;27;1176;-79
2022/01/19 17:49:23;;;;;;;;;;;;;;;;;;5119415;27;949;-80
2022/01/19 17:51:50;;;;;;;;;;;;;;;;;;5066597;28;1255;-80
2022/01/19 17:54:16;;;;;;;;;;;;;;;;;;5080428;28;1218;-80
2022/01/19 17:56:44;;;;;;;;;;;;;;;;;;5083409;28;1289;-79
2022/01/19 17:59:12;;;;;;;;;;;;;;;;;;5083048;28;1273;-81
2022/01/19 18:01:37;;;;;;;;;;;;;;;;;;5094571;27;1169;-79
2022/01/19 18:04:12;;;;;;;;;;;;;;;;;;5086038;27;1239;-81
2022/01/19 18:06:37;;;;;;;;;;;;;;;;;;5069473;27;1882;-83
2022/01/19 18:09:11;;;;;;;;;;;;;;;;;;5104071;27;1320;-82
2022/01/19 18:11:37;;;;;;;;;;;;;;;;;;5102873;27;1302;-83
2022/01/19 18:14:08;;;;;;;;;;;;;;;;;;5105126;27;1188;-82
2022/01/19 18:16:33;;;;;;;;;;;;;;;;;;5121283;27;1152;-80
2022/01/19 18:18:59;;;;;;;;;;;;;;;;;;5104548;27;1416;-82
2022/01/19 18:21:32;;;;;;;;;;;;;;;;;;5089585;27;1328;-80
2022/01/19 18:26:46;;;;;;;;;;;;;;;;;;5059976;27;1937;-81
2022/01/19 18:29:11;;;;;;;;;;;;;;;;;;5079260;28;1295;-80
2022/01/19 18:31:37;;;;;;;;;;;;;;;;;;5085374;27;1144;-84
2022/01/19 18:34:08;;;;;;;;;;;;;;;;;;5088099;28;1238;-81
2022/01/19 18:36:33;;;;;;;;;;;;;;;;;;5061573;28;1172;-80
2022/01/19 18:38:59;;;;;;;;;;;;;;;;;;5080639;28;1148;-80
2022/01/19 18:41:24;;;;;;;;;;;;;;;;;;5107601;27;1100;-81
2022/01/19 18:43:52;;;;;;;;;;;;;;;;;;5084721;27;1402;-79
2022/01/19 18:46:17;;;;;;;;;;;;;;;;;;5120354;27;1914;-81
2022/01/19 18:48:43;;;;;;;;;;;;;;;;;;5095186;27;1109;-83
2022/01/19 18:51:18;;;;;;;;;;;;;;;;;;5089366;27;1275;-84
2022/01/19 18:53:43;;;;;;;;;;;;;;;;;;5119198;27;1077;-82
2022/01/19 18:56:12;;;;;;;;;;;;;;;;;;5091598;27;1304;-86
2022/01/19 18:58:40;;;;;;;;;;;;;;;;;;5076678;28;1279;-81
2022/01/19 19:01:09;;;;;;;;;;;;;;;;;;5094546;27;1198;-84
2022/01/19 19:03:35;;;;;;;;;;;;;;;;;;5104760;27;1197;-84
2022/01/19 19:06:19;;;;;;;;;;;;;;;;;;5124375;27;1945;-88
2022/01/19 19:08:44;;;;;;;;;;;;;;;;;;5139348;27;1269;-88